Time;durP1;ratioP1;P1;durP2;ratioP2;P2;SDS_P1;SDS_P2;PMS_P1;PMS_P2;Temp;Humidity;BMP_temperature;BMP_pressure;BME280_temperature;BME280_humidity;BME280_pressure;Samples;Min_cycle;Max_cycle;Signal;HPM_P1;HPM_P2
2021/10/26 00:00:34;;;;;;;4.90;3.25;;;;;;;;;;5072378;28;20085;-62
2021/10/26 00:02:59;;;;;;;4.13;2.80;;;;;;;;;;5072898;28;20036;-62
2021/10/26 00:05:24;;;;;;;4.30;3.42;;;;;;;;;;5072712;28;20079;-62
2021/10/26 00:07:50;;;;;;;4.75;3.80;;;;;;;;;;5071623;28;20025;-62
2021/10/26 00:10:15;;;;;;;4.25;3.35;;;;;;;;;;5072736;28;20031;-61
2021/10/26 00:12:40;;;;;;;5.70;3.42;;;;;;;;;;5072385;28;20016;-62
2021/10/26 00:15:06;;;;;;;3.83;3.00;;;;;;;;;;5070912;28;20086;-62
2021/10/26 00:17:31;;;;;;;5.45;3.22;;;;;;;;;;5072637;28;20437;-62
2021/10/26 00:19:56;;;;;;;2.70;2.42;;;;;;;;;;5072725;28;20436;-62
2021/10/26 00:22:22;;;;;;;3.90;1.98;;;;;;;;;;5070076;28;20526;-60
2021/10/26 00:24:47;;;;;;;3.00;2.13;;;;;;;;;;5072483;28;20013;-62
2021/10/26 00:27:12;;;;;;;3.55;2.05;;;;;;;;;;5068739;28;20376;-62
2021/10/26 00:29:37;;;;;;;4.32;3.20;;;;;;;;;;5071287;28;20446;-61
2021/10/26 00:32:03;;;;;;;5.13;3.10;;;;;;;;;;5072062;28;20100;-61
2021/10/26 00:34:28;;;;;;;5.13;3.33;;;;;;;;;;5072373;28;20170;-62
2021/10/26 00:36:54;;;;;;;4.80;2.80;;;;;;;;;;5071682;28;20029;-62
2021/10/26 00:39:19;;;;;;;3.17;2.15;;;;;;;;;;5087292;28;20021;-62
2021/10/26 00:41:45;;;;;;;4.45;2.20;;;;;;;;;;5072017;28;20473;-61
2021/10/26 00:44:10;;;;;;;2.55;2.20;;;;;;;;;;5072120;28;20019;-62
2021/10/26 00:46:36;;;;;;;10.52;6.40;;;;;;;;;;5072360;28;20017;-61
2021/10/26 00:49:03;;;;;;;5.55;3.80;;;;;;;;;;5072172;28;20016;-62
2021/10/26 00:51:29;;;;;;;4.95;3.50;;;;;;;;;;5070938;28;20086;-62
2021/10/26 00:53:54;;;;;;;6.15;3.95;;;;;;;;;;5068964;28;20025;-62
2021/10/26 00:56:20;;;;;;;4.43;3.05;;;;;;;;;;5069812;28;20357;-60
2021/10/26 00:58:46;;;;;;;4.13;2.60;;;;;;;;;;5068787;28;20086;-62
2021/10/26 01:01:11;;;;;;;4.22;3.35;;;;;;;;;;5071648;28;20035;-60
2021/10/26 01:03:36;;;;;;;4.63;3.30;;;;;;;;;;5086934;28;20016;-62
2021/10/26 01:06:01;;;;;;;4.25;2.65;;;;;;;;;;5071936;28;20024;-62
2021/10/26 01:08:26;;;;;;;4.32;2.75;;;;;;;;;;5071271;28;20021;-61
2021/10/26 01:10:52;;;;;;;3.38;2.90;;;;;;;;;;5071204;28;20481;-60
2021/10/26 01:13:19;;;;;;;4.45;3.00;;;;;;;;;;5071803;28;20017;-61
2021/10/26 01:15:45;;;;;;;3.92;3.03;;;;;;;;;;5071445;28;20021;-61
2021/10/26 01:18:11;;;;;;;5.13;2.83;;;;;;;;;;5071795;28;20507;-62
2021/10/26 01:20:36;;;;;;;3.80;3.17;;;;;;;;;;5071883;28;20017;-62
2021/10/26 01:23:01;;;;;;;4.25;3.30;;;;;;;;;;5070595;28;20499;-62
2021/10/26 01:25:27;;;;;;;5.93;3.80;;;;;;;;;;5072098;28;20364;-61
2021/10/26 01:27:53;;;;;;;5.85;3.90;;;;;;;;;;5069013;28;20075;-61
2021/10/26 01:30:21;;;;;;;5.13;3.40;;;;;;;;;;5075485;28;20086;-61
2021/10/26 01:32:46;;;;;;;4.30;3.90;;;;;;;;;;5075246;28;20040;-61
2021/10/26 01:35:12;;;;;;;4.20;3.78;;;;;;;;;;5074404;28;20044;-61
2021/10/26 01:37:37;;;;;;;5.80;3.55;;;;;;;;;;5073514;28;20066;-61
2021/10/26 01:40:02;;;;;;;4.70;3.35;;;;;;;;;;5073937;28;20033;-61
2021/10/26 01:42:28;;;;;;;4.22;3.42;;;;;;;;;;5075302;28;20032;-61
2021/10/26 01:44:53;;;;;;;5.45;3.60;;;;;;;;;;5075371;28;20078;-58
2021/10/26 01:47:18;;;;;;;5.90;3.60;;;;;;;;;;5075735;28;20032;-61
2021/10/26 01:49:43;;;;;;;5.03;3.22;;;;;;;;;;5075102;28;20036;-60
2021/10/26 01:52:09;;;;;;;4.38;3.13;;;;;;;;;;5073470;28;20039;-62
2021/10/26 01:54:38;;;;;;;4.75;3.05;;;;;;;;;;5075260;28;20016;-61
2021/10/26 01:57:05;;;;;;;4.00;2.92;;;;;;;;;;5057699;28;20078;-61
2021/10/26 01:59:30;;;;;;;5.80;3.10;;;;;;;;;;5074667;28;20035;-61
2021/10/26 02:01:55;;;;;;;4.28;3.28;;;;;;;;;;5074659;28;20033;-61
2021/10/26 02:04:21;;;;;;;3.47;2.80;;;;;;;;;;5074360;28;20028;-62
2021/10/26 02:06:46;;;;;;;4.57;3.10;;;;;;;;;;5074243;28;20032;-62
2021/10/26 02:09:11;;;;;;;4.20;3.05;;;;;;;;;;5075005;28;20052;-62
2021/10/26 02:11:36;;;;;;;3.28;2.50;;;;;;;;;;5073881;28;20031;-62
2021/10/26 02:14:02;;;;;;;4.50;2.33;;;;;;;;;;5072849;28;20542;-62
2021/10/26 02:16:27;;;;;;;5.00;2.58;;;;;;;;;;5074936;28;20032;-62
2021/10/26 02:18:52;;;;;;;5.68;3.00;;;;;;;;;;5074513;28;20056;-60
2021/10/26 02:21:18;;;;;;;4.93;3.42;;;;;;;;;;5074266;28;20017;-61
2021/10/26 02:23:43;;;;;;;6.30;3.47;;;;;;;;;;5073792;28;20025;-61
2021/10/26 02:26:08;;;;;;;4.28;2.60;;;;;;;;;;5074820;28;20050;-62
2021/10/26 02:28:34;;;;;;;5.57;3.00;;;;;;;;;;5071668;28;20048;-60
2021/10/26 02:30:59;;;;;;;4.28;2.60;;;;;;;;;;5074116;28;20033;-61
2021/10/26 02:33:24;;;;;;;5.43;3.25;;;;;;;;;;5074330;28;20485;-61
2021/10/26 02:35:49;;;;;;;4.03;2.75;;;;;;;;;;5074570;28;20021;-62
2021/10/26 02:38:15;;;;;;;6.30;3.05;;;;;;;;;;5072117;28;20025;-61
2021/10/26 02:40:40;;;;;;;3.53;3.10;;;;;;;;;;5073920;28;20040;-62
2021/10/26 02:43:06;;;;;;;3.33;2.65;;;;;;;;;;5074259;28;20027;-61
2021/10/26 02:45:31;;;;;;;4.25;2.72;;;;;;;;;;5069382;28;20386;-61
2021/10/26 02:47:58;;;;;;;4.38;2.45;;;;;;;;;;5074543;28;20027;-61
2021/10/26 02:50:23;;;;;;;4.38;3.28;;;;;;;;;;5074317;28;20036;-61
2021/10/26 02:52:48;;;;;;;6.97;3.03;;;;;;;;;;5071940;28;20492;-62
2021/10/26 02:55:13;;;;;;;3.67;2.95;;;;;;;;;;5069696;28;20097;-62
2021/10/26 02:57:38;;;;;;;4.70;3.22;;;;;;;;;;5071249;28;20440;-61
2021/10/26 03:00:09;;;;;;;3.75;2.70;;;;;;;;;;5072048;28;20105;-61
2021/10/26 03:02:34;;;;;;;5.53;3.45;;;;;;;;;;5074040;28;20070;-61
2021/10/26 03:04:59;;;;;;;4.78;3.22;;;;;;;;;;5073861;28;20021;-62
2021/10/26 03:07:24;;;;;;;5.80;3.10;;;;;;;;;;5073376;28;20028;-62
2021/10/26 03:09:50;;;;;;;7.18;3.10;;;;;;;;;;5073396;28;20028;-62
2021/10/26 03:12:15;;;;;;;4.28;3.10;;;;;;;;;;5073844;28;20039;-57
2021/10/26 03:14:40;;;;;;;3.20;2.85;;;;;;;;;;5073645;28;20032;-63
2021/10/26 03:17:05;;;;;;;4.95;2.90;;;;;;;;;;5074092;28;20039;-57
2021/10/26 03:19:30;;;;;;;3.20;2.63;;;;;;;;;;5073598;28;20115;-62
2021/10/26 03:21:56;;;;;;;4.47;3.20;;;;;;;;;;5071158;28;20021;-60
2021/10/26 03:24:21;;;;;;;4.30;3.08;;;;;;;;;;5072770;28;20282;-62
2021/10/26 03:26:46;;;;;;;3.13;2.75;;;;;;;;;;5071344;28;20029;-60
2021/10/26 03:29:11;;;;;;;3.80;2.95;;;;;;;;;;5071600;28;20052;-61
2021/10/26 03:31:36;;;;;;;6.22;3.72;;;;;;;;;;5073114;28;20036;-61
2021/10/26 03:34:02;;;;;;;4.93;3.15;;;;;;;;;;5072022;28;20028;-62
2021/10/26 03:36:27;;;;;;;4.75;3.30;;;;;;;;;;5072850;28;20078;-61
2021/10/26 03:38:53;;;;;;;3.95;2.95;;;;;;;;;;5071895;28;20020;-61
2021/10/26 03:41:18;;;;;;;4.80;3.08;;;;;;;;;;5072965;28;20465;-62
2021/10/26 03:43:43;;;;;;;5.28;3.00;;;;;;;;;;5072600;28;20021;-59
2021/10/26 03:46:08;;;;;;;4.25;3.00;;;;;;;;;;5073097;28;20545;-61
2021/10/26 03:48:33;;;;;;;4.55;3.22;;;;;;;;;;5072892;28;20025;-62
2021/10/26 03:50:59;;;;;;;4.75;3.25;;;;;;;;;;5072464;28;20098;-62
2021/10/26 03:53:24;;;;;;;5.32;3.80;;;;;;;;;;5071770;28;20369;-62
2021/10/26 03:55:49;;;;;;;6.97;3.13;;;;;;;;;;5072598;28;20082;-62
2021/10/26 03:58:14;;;;;;;4.50;3.15;;;;;;;;;;5071931;28;20158;-62
2021/10/26 04:00:40;;;;;;;5.20;2.90;;;;;;;;;;5072804;28;20024;-62
2021/10/26 04:03:05;;;;;;;7.28;3.72;;;;;;;;;;5072258;28;20086;-61
2021/10/26 04:05:41;;;;;;;5.63;3.25;;;;;;;;;;5072878;28;20020;-62
2021/10/26 04:09:10;;;;;;;4.63;2.55;;;;;;;;;;5052216;28;20048;-62
2021/10/26 04:11:11;;;;;;;4.32;2.97;;;;;;;;;;5071311;28;20123;-62
2021/10/26 04:13:36;;;;;;;5.22;3.03;;;;;;;;;;5072685;28;20449;-62
2021/10/26 04:16:02;;;;;;;4.00;2.90;;;;;;;;;;5072061;28;20032;-62
2021/10/26 04:18:28;;;;;;;4.75;2.88;;;;;;;;;;5052732;28;20025;-62
2021/10/26 04:20:53;;;;;;;4.03;2.92;;;;;;;;;;5066056;28;20553;-62
2021/10/26 04:23:18;;;;;;;3.88;2.38;;;;;;;;;;5071742;28;20024;-62
2021/10/26 04:25:44;;;;;;;4.18;2.92;;;;;;;;;;5072697;28;20021;-61
2021/10/26 04:28:09;;;;;;;3.22;2.70;;;;;;;;;;5069635;28;20489;-62
2021/10/26 04:30:34;;;;;;;6.28;2.45;;;;;;;;;;5068756;28;20024;-62
2021/10/26 04:33:01;;;;;;;5.18;2.75;;;;;;;;;;5071539;28;20017;-62
2021/10/26 04:35:26;;;;;;;4.28;2.42;;;;;;;;;;5071658;28;20048;-62
2021/10/26 04:37:52;;;;;;;3.35;2.53;;;;;;;;;;5087391;28;20064;-62
2021/10/26 04:40:18;;;;;;;5.20;2.42;;;;;;;;;;5072253;28;20024;-61
2021/10/26 04:42:43;;;;;;;4.60;2.53;;;;;;;;;;5071636;28;20107;-60
2021/10/26 04:45:08;;;;;;;3.88;2.53;;;;;;;;;;5071823;28;20036;-61
2021/10/26 04:47:34;;;;;;;3.67;2.40;;;;;;;;;;5071810;28;20120;-61
2021/10/26 04:49:59;;;;;;;3.50;2.67;;;;;;;;;;5071959;28;20044;-62
2021/10/26 04:52:24;;;;;;;5.00;2.45;;;;;;;;;;5070824;28;20036;-61
2021/10/26 04:54:49;;;;;;;3.85;2.30;;;;;;;;;;5072092;28;20052;-62
2021/10/26 04:57:15;;;;;;;3.60;2.17;;;;;;;;;;5069422;28;20025;-61
2021/10/26 04:59:40;;;;;;;3.00;1.85;;;;;;;;;;5071365;28;20043;-63
2021/10/26 05:02:05;;;;;;;2.95;2.28;;;;;;;;;;5071124;28;20061;-60
2021/10/26 05:04:31;;;;;;;3.28;2.08;;;;;;;;;;5071782;28;20028;-61
2021/10/26 05:06:56;;;;;;;3.25;2.10;;;;;;;;;;5070966;28;20044;-61
2021/10/26 05:09:21;;;;;;;3.10;2.03;;;;;;;;;;5071565;28;20392;-61
2021/10/26 05:11:46;;;;;;;3.10;1.90;;;;;;;;;;5069564;28;20111;-62
2021/10/26 05:14:12;;;;;;;5.05;2.30;;;;;;;;;;5071252;28;20415;-61
2021/10/26 05:16:37;;;;;;;5.40;2.33;;;;;;;;;;5071368;28;20082;-61
2021/10/26 05:19:04;;;;;;;3.75;1.98;;;;;;;;;;5071533;28;20028;-62
2021/10/26 05:21:30;;;;;;;3.33;1.92;;;;;;;;;;5071323;28;20047;-62
2021/10/26 05:23:55;;;;;;;2.28;1.80;;;;;;;;;;5070720;28;20477;-61
2021/10/26 05:26:20;;;;;;;2.08;1.80;;;;;;;;;;5070772;28;20066;-62
2021/10/26 05:28:47;;;;;;;2.92;1.77;;;;;;;;;;5068680;28;20044;-60
2021/10/26 05:31:12;;;;;;;2.15;1.35;;;;;;;;;;5071161;28;20064;-61
2021/10/26 05:33:38;;;;;;;5.75;1.45;;;;;;;;;;5070886;28;20063;-61
2021/10/26 05:36:04;;;;;;;3.15;1.58;;;;;;;;;;5070846;28;20020;-61
2021/10/26 05:38:29;;;;;;;7.30;1.60;;;;;;;;;;5071038;28;20020;-62
2021/10/26 05:40:54;;;;;;;4.10;1.85;;;;;;;;;;5070979;28;20206;-62
2021/10/26 05:43:20;;;;;;;3.88;1.88;;;;;;;;;;5070366;28;20025;-61
2021/10/26 05:45:45;;;;;;;3.72;2.10;;;;;;;;;;5071082;28;20392;-60
2021/10/26 05:48:11;;;;;;;3.95;2.08;;;;;;;;;;5071484;28;20021;-61
2021/10/26 05:50:36;;;;;;;3.13;1.98;;;;;;;;;;5071139;28;20099;-61
2021/10/26 05:53:02;;;;;;;3.80;2.47;;;;;;;;;;5070097;28;20029;-61
2021/10/26 05:55:27;;;;;;;5.40;2.20;;;;;;;;;;5070747;28;20024;-62
2021/10/26 05:57:52;;;;;;;2.47;2.10;;;;;;;;;;5067803;28;20027;-61
2021/10/26 06:00:17;;;;;;;3.45;2.17;;;;;;;;;;5070624;28;20028;-62
2021/10/26 06:02:42;;;;;;;2.80;1.95;;;;;;;;;;5070593;28;20099;-62
2021/10/26 06:05:10;;;;;;;2.25;2.05;;;;;;;;;;5071116;28;20021;-62
2021/10/26 06:07:36;;;;;;;3.65;2.50;;;;;;;;;;5070456;28;20012;-60
2021/10/26 06:10:01;;;;;;;5.22;3.10;;;;;;;;;;5071202;28;20031;-60
2021/10/26 06:12:30;;;;;;;4.35;2.72;;;;;;;;;;5069920;28;20021;-62
2021/10/26 06:14:55;;;;;;;5.20;2.95;;;;;;;;;;5071994;28;20036;-61
2021/10/26 06:17:20;;;;;;;4.47;2.03;;;;;;;;;;5074849;28;20025;-62
2021/10/26 06:19:46;;;;;;;3.85;3.08;;;;;;;;;;5073339;28;20024;-61
2021/10/26 06:22:11;;;;;;;4.45;2.90;;;;;;;;;;5072530;28;20024;-62
2021/10/26 06:24:36;;;;;;;6.15;2.97;;;;;;;;;;5074406;28;20016;-61
2021/10/26 06:27:01;;;;;;;5.53;3.30;;;;;;;;;;5069971;28;20047;-61
2021/10/26 06:29:26;;;;;;;2.97;2.45;;;;;;;;;;5072988;28;20041;-60
2021/10/26 06:31:53;;;;;;;4.25;2.58;;;;;;;;;;5065285;28;20051;-61
2021/10/26 06:34:18;;;;;;;5.25;2.78;;;;;;;;;;5073744;28;20099;-61
2021/10/26 06:36:43;;;;;;;5.72;3.20;;;;;;;;;;5072243;28;20024;-61
2021/10/26 06:39:08;;;;;;;4.80;3.10;;;;;;;;;;5072950;28;20024;-62
2021/10/26 06:41:34;;;;;;;4.45;3.20;;;;;;;;;;5074229;28;20040;-62
2021/10/26 06:44:00;;;;;;;4.20;3.03;;;;;;;;;;5073352;28;20052;-62
2021/10/26 06:46:25;;;;;;;5.07;3.75;;;;;;;;;;5073119;28;20346;-59
2021/10/26 06:48:51;;;;;;;5.05;3.15;;;;;;;;;;5072772;28;20020;-61
2021/10/26 06:51:16;;;;;;;5.47;3.53;;;;;;;;;;5073892;28;20028;-60
2021/10/26 06:53:41;;;;;;;6.70;4.63;;;;;;;;;;5072995;28;20115;-62
2021/10/26 06:56:13;;;;;;;7.22;4.95;;;;;;;;;;5073796;28;20055;-61
2021/10/26 06:58:38;;;;;;;5.47;4.63;;;;;;;;;;5070722;28;20021;-61
2021/10/26 07:01:07;;;;;;;7.85;5.20;;;;;;;;;;5072846;28;20024;-61
2021/10/26 07:03:32;;;;;;;7.82;4.97;;;;;;;;;;5074024;28;20126;-61
2021/10/26 07:05:58;;;;;;;7.28;4.13;;;;;;;;;;5073494;28;20032;-62
2021/10/26 07:08:23;;;;;;;7.50;5.10;;;;;;;;;;5073357;28;20028;-62
2021/10/26 07:10:48;;;;;;;5.32;4.72;;;;;;;;;;5072728;28;20109;-59
2021/10/26 07:13:14;;;;;;;6.97;4.93;;;;;;;;;;5074165;28;20042;-59
2021/10/26 07:15:39;;;;;;;6.50;4.60;;;;;;;;;;5072679;28;20119;-61
2021/10/26 07:18:04;;;;;;;6.82;4.70;;;;;;;;;;5073288;28;20477;-58
2021/10/26 07:20:29;;;;;;;10.02;5.45;;;;;;;;;;5073516;28;20044;-59
2021/10/26 07:22:55;;;;;;;5.88;4.82;;;;;;;;;;5071252;28;20020;-60
2021/10/26 07:25:20;;;;;;;6.43;5.28;;;;;;;;;;5072471;28;20448;-61
2021/10/26 07:27:47;;;;;;;7.05;4.82;;;;;;;;;;5073700;28;20036;-59
2021/10/26 07:30:13;;;;;;;9.73;5.57;;;;;;;;;;5073048;28;20039;-61
2021/10/26 07:32:39;;;;;;;7.18;5.82;;;;;;;;;;5070365;28;20036;-60
2021/10/26 07:35:04;;;;;;;9.07;5.57;;;;;;;;;;5072742;28;20044;-59
2021/10/26 07:37:35;;;;;;;7.88;5.75;;;;;;;;;;5072105;28;20399;-60
2021/10/26 07:40:00;;;;;;;9.75;6.60;;;;;;;;;;5069265;28;20119;-60
2021/10/26 07:42:25;;;;;;;8.70;7.57;;;;;;;;;;5072176;28;20461;-60
2021/10/26 07:44:51;;;;;;;10.27;7.65;;;;;;;;;;5072909;28;20016;-61
2021/10/26 07:47:19;;;;;;;9.10;7.32;;;;;;;;;;5072450;28;20035;-61
2021/10/26 07:49:44;;;;;;;9.48;7.65;;;;;;;;;;5072641;28;20404;-58
2021/10/26 07:52:10;;;;;;;10.73;8.70;;;;;;;;;;5071571;28;20058;-60
2021/10/26 07:54:35;;;;;;;10.15;8.43;;;;;;;;;;5072849;28;20029;-60
2021/10/26 07:57:00;;;;;;;11.90;8.23;;;;;;;;;;5069945;28;20213;-61
2021/10/26 07:59:26;;;;;;;11.65;8.00;;;;;;;;;;5071455;28;20468;-60
2021/10/26 08:01:51;;;;;;;10.10;8.70;;;;;;;;;;5086675;28;20534;-61
2021/10/26 08:04:17;;;;;;;8.95;7.47;;;;;;;;;;5071572;28;20024;-60
2021/10/26 08:06:46;;;;;;;10.30;8.65;;;;;;;;;;5072613;28;20485;-60
2021/10/26 08:09:11;;;;;;;14.60;9.57;;;;;;;;;;5072286;28;20021;-60
2021/10/26 08:11:37;;;;;;;9.50;8.52;;;;;;;;;;5071929;28;20100;-59
2021/10/26 08:14:03;;;;;;;11.75;8.40;;;;;;;;;;5072041;28;20016;-60
2021/10/26 08:16:28;;;;;;;11.48;8.98;;;;;;;;;;5072553;28;20381;-59
2021/10/26 08:18:54;;;;;;;12.77;8.07;;;;;;;;;;5072676;28;20021;-60
2021/10/26 08:21:19;;;;;;;11.73;8.73;;;;;;;;;;5072069;28;20032;-60
2021/10/26 08:23:45;;;;;;;9.65;8.40;;;;;;;;;;5071477;28;20041;-60
2021/10/26 08:26:16;;;;;;;10.82;9.02;;;;;;;;;;5072348;28;20525;-60
2021/10/26 08:28:42;;;;;;;10.77;8.15;;;;;;;;;;5068600;28;20143;-60
2021/10/26 08:31:17;;;;;;;10.50;7.25;;;;;;;;;;5071807;28;20102;-59
2021/10/26 08:36:27;;;;;;;5.78;4.22;;;;;;;;;;5065132;28;20150;-60
2021/10/26 08:38:52;;;;;;;11.88;8.25;;;;;;;;;;5070703;28;20112;-60
2021/10/26 08:41:18;;;;;;;11.55;9.02;;;;;;;;;;5071465;28;20499;-62
2021/10/26 08:43:44;;;;;;;9.82;7.53;;;;;;;;;;5070291;28;20024;-63
2021/10/26 08:46:09;;;;;;;11.23;8.73;;;;;;;;;;5071959;28;20417;-63
2021/10/26 08:48:40;;;;;;;11.25;9.27;;;;;;;;;;5070085;28;20483;-61
2021/10/26 08:51:05;;;;;;;10.13;6.70;;;;;;;;;;5071476;28;20028;-61
2021/10/26 08:53:32;;;;;;;10.98;8.38;;;;;;;;;;5070549;28;20032;-63
2021/10/26 08:55:59;;;;;;;10.88;7.93;;;;;;;;;;5071768;28;20082;-63
2021/10/26 08:58:25;;;;;;;11.10;7.72;;;;;;;;;;5066767;28;20029;-62
2021/10/26 09:00:50;;;;;;;10.13;8.82;;;;;;;;;;5070750;28;20029;-62
2021/10/26 09:03:17;;;;;;;12.23;8.07;;;;;;;;;;5076859;28;20105;-63
2021/10/26 09:05:43;;;;;;;10.75;8.52;;;;;;;;;;5081526;28;20019;-61
2021/10/26 09:08:10;;;;;;;10.52;8.77;;;;;;;;;;5071033;28;20062;-61
2021/10/26 09:10:36;;;;;;;11.15;8.93;;;;;;;;;;5071728;28;20028;-62
2021/10/26 09:18:38;;;;;;;12.35;7.78;;;;;;;;;;5071176;28;20039;-61
2021/10/26 09:21:04;;;;;;;10.95;8.38;;;;;;;;;;5076004;28;20025;-61
2021/10/26 09:23:29;;;;;;;13.48;8.90;;;;;;;;;;5070397;28;20071;-60
2021/10/26 09:25:58;;;;;;;12.15;7.95;;;;;;;;;;5071540;28;20516;-61
2021/10/26 09:28:24;;;;;;;10.20;7.15;;;;;;;;;;5066759;28;20471;-61
2021/10/26 09:31:05;;;;;;;8.63;6.97;;;;;;;;;;5069815;28;20380;-61
2021/10/26 09:33:38;;;;;;;9.13;7.25;;;;;;;;;;5068257;28;20027;-61
2021/10/26 09:36:21;;;;;;;11.55;7.90;;;;;;;;;;5070587;28;20032;-61
2021/10/26 09:38:47;;;;;;;10.38;7.68;;;;;;;;;;5069958;28;20365;-60
2021/10/26 09:41:12;;;;;;;10.13;8.00;;;;;;;;;;5071488;28;20024;-61
2021/10/26 09:43:37;;;;;;;7.78;6.45;;;;;;;;;;5071312;28;20036;-61
2021/10/26 09:46:03;;;;;;;8.40;6.40;;;;;;;;;;5070724;28;20028;-62
2021/10/26 09:48:31;;;;;;;7.80;7.00;;;;;;;;;;5071899;28;20376;-62
2021/10/26 09:51:08;;;;;;;6.47;5.75;;;;;;;;;;5074786;28;20008;-62
2021/10/26 09:53:34;;;;;;;8.88;7.18;;;;;;;;;;5074036;28;20040;-60
2021/10/26 09:56:01;;;;;;;8.45;6.63;;;;;;;;;;5075857;28;20024;-61
2021/10/26 09:58:29;;;;;;;4.60;3.75;;;;;;;;;;5068955;28;20094;-55
2021/10/26 10:01:04;;;;;;;6.88;5.35;;;;;;;;;;5074684;28;20544;-61
2021/10/26 10:03:29;;;;;;;9.70;6.68;;;;;;;;;;5054953;28;20060;-61
2021/10/26 10:05:56;;;;;;;17.10;6.35;;;;;;;;;;5069157;28;20419;-62
2021/10/26 10:08:21;;;;;;;8.60;7.10;;;;;;;;;;5072902;28;20028;-61
2021/10/26 10:10:47;;;;;;;9.10;5.07;;;;;;;;;;5075653;28;20078;-60
2021/10/26 10:13:13;;;;;;;9.52;6.13;;;;;;;;;;5075112;28;20466;-62
2021/10/26 10:15:39;;;;;;;7.25;5.95;;;;;;;;;;5074385;28;20028;-60
2021/10/26 10:18:05;;;;;;;6.05;4.65;;;;;;;;;;5073927;28;20021;-61
2021/10/26 10:20:30;;;;;;;5.57;4.30;;;;;;;;;;5073819;28;20024;-61
2021/10/26 10:22:56;;;;;;;9.60;6.68;;;;;;;;;;5074179;28;20131;-61
2021/10/26 10:25:23;;;;;;;8.30;6.93;;;;;;;;;;5074875;28;20063;-61
2021/10/26 10:27:48;;;;;;;6.55;4.30;;;;;;;;;;5070670;28;20032;-61
2021/10/26 10:30:13;;;;;;;7.10;4.22;;;;;;;;;;5073878;28;20081;-61
2021/10/26 10:32:40;;;;;;;6.93;5.65;;;;;;;;;;5072898;28;20245;-60
2021/10/26 10:35:08;;;;;;;10.90;5.30;;;;;;;;;;5075900;28;20648;-61
2021/10/26 10:37:34;;;;;;;4.75;4.20;;;;;;;;;;5073113;28;20508;-61
2021/10/26 10:40:02;;;;;;;6.93;5.05;;;;;;;;;;5074051;28;20036;-62
2021/10/26 10:42:30;;;;;;;7.63;5.47;;;;;;;;;;5073684;28;20128;-63
2021/10/26 10:44:57;;;;;;;7.35;5.38;;;;;;;;;;5073519;28;20020;-60
2021/10/26 10:47:31;;;;;;;5.75;4.68;;;;;;;;;;5075666;28;20477;-62
2021/10/26 10:49:56;;;;;;;8.60;5.90;;;;;;;;;;5074276;28;20052;-60
2021/10/26 10:52:28;;;;;;;5.93;5.18;;;;;;;;;;5073342;28;20490;-62
2021/10/26 10:54:54;;;;;;;5.72;4.47;;;;;;;;;;5073574;28;20025;-62
2021/10/26 10:57:26;;;;;;;7.68;6.88;;;;;;;;;;5071587;28;20233;-62
2021/10/26 10:59:52;;;;;;;10.40;7.93;;;;;;;;;;5074409;28;20021;-62
2021/10/26 11:02:22;;;;;;;8.88;8.00;;;;;;;;;;5072578;28;20032;-61
2021/10/26 11:04:47;;;;;;;7.90;7.10;;;;;;;;;;5074111;28;20040;-61
2021/10/26 11:07:13;;;;;;;8.15;6.90;;;;;;;;;;5072290;28;20476;-61
2021/10/26 11:09:42;;;;;;;8.00;6.25;;;;;;;;;;5072216;28;20031;-61
2021/10/26 11:12:10;;;;;;;7.13;6.10;;;;;;;;;;5073717;28;20035;-61
2021/10/26 11:14:42;;;;;;;7.93;6.13;;;;;;;;;;5072887;28;20021;-63
2021/10/26 11:17:25;;;;;;;6.80;5.72;;;;;;;;;;5072018;28;20016;-61
2021/10/26 11:19:51;;;;;;;8.45;7.55;;;;;;;;;;5071836;28;20025;-62
2021/10/26 11:22:35;;;;;;;7.35;6.47;;;;;;;;;;5071722;28;20029;-63
2021/10/26 11:25:19;;;;;;;6.32;5.38;;;;;;;;;;5072351;28;20119;-62
2021/10/26 11:27:44;;;;;;;8.02;6.88;;;;;;;;;;5065482;28;20037;-62
2021/10/26 11:30:28;;;;;;;9.18;7.60;;;;;;;;;;5071294;28;20039;-61
2021/10/26 11:33:12;;;;;;;8.43;7.65;;;;;;;;;;5068208;28;20024;-63
2021/10/26 11:35:46;;;;;;;6.75;5.95;;;;;;;;;;5072038;28;20028;-61
2021/10/26 11:38:12;;;;;;;4.72;4.18;;;;;;;;;;5072018;28;20385;-62
2021/10/26 11:40:37;;;;;;;7.65;6.85;;;;;;;;;;5079638;28;20021;-61
2021/10/26 11:43:02;;;;;;;8.87;6.90;;;;;;;;;;5072528;28;20033;-63
2021/10/26 11:45:27;;;;;;;9.55;8.55;;;;;;;;;;5072121;28;20270;-61
2021/10/26 11:47:53;;;;;;;9.57;7.95;;;;;;;;;;5072236;28;20028;-62
2021/10/26 11:50:19;;;;;;;10.00;7.72;;;;;;;;;;5072129;28;20036;-62
2021/10/26 11:52:44;;;;;;;7.18;6.32;;;;;;;;;;5071218;28;20145;-62
2021/10/26 11:55:09;;;;;;;6.75;5.25;;;;;;;;;;5072899;28;20559;-62
2021/10/26 11:57:35;;;;;;;9.25;7.70;;;;;;;;;;5068953;28;20399;-61
2021/10/26 12:00:03;;;;;;;9.27;6.57;;;;;;;;;;5070045;28;20392;-61
2021/10/26 12:02:32;;;;;;;8.18;7.20;;;;;;;;;;5072597;28;20016;-62
2021/10/26 12:04:57;;;;;;;8.30;7.15;;;;;;;;;;5072989;28;20019;-62
2021/10/26 12:07:24;;;;;;;9.63;7.50;;;;;;;;;;5087750;28;20111;-61
2021/10/26 12:09:53;;;;;;;9.02;7.60;;;;;;;;;;5072387;28;20024;-57
2021/10/26 12:12:20;;;;;;;8.43;7.05;;;;;;;;;;5072096;28;20112;-62
2021/10/26 12:14:47;;;;;;;7.93;7.00;;;;;;;;;;5071062;28;20024;-61
2021/10/26 12:17:12;;;;;;;7.57;5.82;;;;;;;;;;5072399;28;20044;-62
2021/10/26 12:19:37;;;;;;;6.18;4.20;;;;;;;;;;5072166;28;20031;-63
2021/10/26 12:22:03;;;;;;;10.60;7.40;;;;;;;;;;5071392;28;20483;-61
2021/10/26 12:24:29;;;;;;;6.13;4.80;;;;;;;;;;5072631;28;20255;-61
2021/10/26 12:27:00;;;;;;;7.55;5.72;;;;;;;;;;5069799;28;20035;-62
2021/10/26 12:29:26;;;;;;;7.55;5.82;;;;;;;;;;5071692;28;20496;-62
2021/10/26 12:31:51;;;;;;;7.32;5.88;;;;;;;;;;5071457;28;20027;-62
2021/10/26 12:34:16;;;;;;;6.72;5.95;;;;;;;;;;5071787;28;20021;-61
2021/10/26 12:36:42;;;;;;;8.75;7.00;;;;;;;;;;5072005;28;20025;-62
2021/10/26 12:39:08;;;;;;;5.28;3.67;;;;;;;;;;5071412;28;20052;-61
2021/10/26 12:41:37;;;;;;;11.00;8.57;;;;;;;;;;5071699;28;20424;-62
2021/10/26 12:44:04;;;;;;;9.00;6.55;;;;;;;;;;5071332;28;20042;-63
2021/10/26 12:46:29;;;;;;;7.68;5.90;;;;;;;;;;5071825;28;20051;-62
2021/10/26 12:49:06;;;;;;;8.05;6.65;;;;;;;;;;5071974;28;20025;-63
2021/10/26 12:51:32;;;;;;;7.88;6.10;;;;;;;;;;5071063;28;20505;-61
2021/10/26 12:54:08;;;;;;;8.60;7.50;;;;;;;;;;5070538;28;20059;-61
2021/10/26 12:56:34;;;;;;;9.35;7.40;;;;;;;;;;5070424;28;20024;-61
2021/10/26 12:59:08;;;;;;;7.75;6.20;;;;;;;;;;5070947;28;20396;-58
2021/10/26 13:01:40;;;;;;;8.50;6.75;;;;;;;;;;5071658;28;20475;-63
2021/10/26 13:04:10;;;;;;;9.20;6.93;;;;;;;;;;5068383;28;20103;-62
2021/10/26 13:06:37;;;;;;;10.13;6.72;;;;;;;;;;5071529;28;20373;-62
2021/10/26 13:09:05;;;;;;;7.80;6.07;;;;;;;;;;5067661;28;20027;-62
2021/10/26 13:11:30;;;;;;;9.18;6.65;;;;;;;;;;5071355;28;20459;-62
2021/10/26 13:14:00;;;;;;;4.88;3.58;;;;;;;;;;5071399;28;20520;-62
2021/10/26 13:16:29;;;;;;;9.18;6.57;;;;;;;;;;5071007;28;20028;-61
2021/10/26 13:19:07;;;;;;;8.50;5.75;;;;;;;;;;5071532;28;20024;-61
2021/10/26 13:21:32;;;;;;;8.68;6.30;;;;;;;;;;5071020;28;20377;-61
2021/10/26 13:23:58;;;;;;;7.65;5.50;;;;;;;;;;5072657;28;20024;-62
2021/10/26 13:26:23;;;;;;;5.65;4.65;;;;;;;;;;5075194;28;20048;-61
2021/10/26 13:28:48;;;;;;;7.35;6.35;;;;;;;;;;5073070;28;20041;-61
2021/10/26 13:31:20;;;;;;;8.90;6.15;;;;;;;;;;5073962;28;20024;-62
2021/10/26 13:33:45;;;;;;;7.03;5.85;;;;;;;;;;5075826;28;20025;-62
2021/10/26 13:36:11;;;;;;;5.40;4.60;;;;;;;;;;5075102;28;20024;-63
2021/10/26 13:38:37;;;;;;;6.25;4.30;;;;;;;;;;5074229;28;20577;-60
2021/10/26 13:41:03;;;;;;;5.10;4.30;;;;;;;;;;5074271;28;20049;-63
2021/10/26 13:43:30;;;;;;;4.43;3.85;;;;;;;;;;5054999;28;20017;-61
2021/10/26 13:46:00;;;;;;;3.85;2.67;;;;;;;;;;5072959;28;20560;-62
2021/10/26 13:48:25;;;;;;;4.80;2.80;;;;;;;;;;5071931;28;20085;-62
2021/10/26 13:50:50;;;;;;;4.05;3.15;;;;;;;;;;5058755;28;20482;-62
2021/10/26 13:53:16;;;;;;;4.10;3.67;;;;;;;;;;5067125;28;20568;-62
2021/10/26 13:55:42;;;;;;;2.75;1.48;;;;;;;;;;5069182;28;20082;-61
2021/10/26 13:58:07;;;;;;;3.47;2.45;;;;;;;;;;5057913;28;20079;-63
2021/10/26 14:00:35;;;;;;;4.82;3.03;;;;;;;;;;5065726;28;20088;-63
2021/10/26 14:03:01;;;;;;;3.42;3.13;;;;;;;;;;5068253;28;20060;-61
2021/10/26 14:05:26;;;;;;;3.60;3.30;;;;;;;;;;5060699;28;20541;-57
2021/10/26 14:07:52;;;;;;;3.47;2.80;;;;;;;;;;5065753;28;20048;-62
2021/10/26 14:10:17;;;;;;;3.65;2.80;;;;;;;;;;5063713;28;20028;-61
2021/10/26 14:12:45;;;;;;;5.28;3.50;;;;;;;;;;5070050;28;20027;-62
2021/10/26 14:15:17;;;;;;;4.30;3.05;;;;;;;;;;5065898;28;20571;-62
2021/10/26 14:17:42;;;;;;;3.85;2.80;;;;;;;;;;5069505;28;20025;-62
2021/10/26 14:20:10;;;;;;;3.42;2.78;;;;;;;;;;5068587;28;20046;-62
2021/10/26 14:22:37;;;;;;;3.60;3.08;;;;;;;;;;5067835;28;20554;-61
2021/10/26 14:25:03;;;;;;;6.65;2.70;;;;;;;;;;5069417;28;20023;-62
2021/10/26 14:27:28;;;;;;;4.60;2.95;;;;;;;;;;5059616;28;20024;-62
2021/10/26 14:29:53;;;;;;;4.07;3.08;;;;;;;;;;5064778;28;20122;-62
2021/10/26 14:32:20;;;;;;;5.47;2.63;;;;;;;;;;5065475;28;20111;-61
2021/10/26 14:34:49;;;;;;;5.47;2.92;;;;;;;;;;5061268;28;20029;-62
2021/10/26 14:53:17;;;;;;;3.33;1.92;;;;;;;;;;5064362;28;20071;-61
2021/10/26 14:58:19;;;;;;;4.95;3.22;;;;;;;;;;5055681;28;20044;-58
2021/10/26 15:00:45;;;;;;;3.50;2.75;;;;;;;;;;5063943;28;20020;-62
2021/10/26 15:03:11;;;;;;;4.70;3.13;;;;;;;;;;5068225;28;20056;-62